sensor_id;sensor_type;location;lat;lon;timestamp;P1;durP1;ratioP1;P2;durP2;ratioP2
8450;SDS011;4262;50.980;13.892;2023-05-10T03:32:18;9.47;;;3.77;;
8450;SDS011;4262;50.980;13.892;2023-05-10T03:34:45;8.57;;;3.50;;
8450;SDS011;4262;50.980;13.892;2023-05-10T03:37:12;7.40;;;3.30;;
8450;SDS011;4262;50.980;13.892;2023-05-10T03:39:40;10.50;;;3.60;;
8450;SDS011;4262;50.980;13.892;2023-05-10T03:42:08;10.13;;;4.00;;
8450;SDS011;4262;50.980;13.892;2023-05-10T03:44:37;10.50;;;3.90;;
8450;SDS011;4262;50.980;13.892;2023-05-10T03:47:04;8.73;;;3.53;;
8450;SDS011;4262;50.980;13.892;2023-05-10T03:49:34;9.80;;;4.00;;
8450;SDS011;4262;50.980;13.892;2023-05-10T03:52:02;8.17;;;3.50;;
8450;SDS011;4262;50.980;13.892;2023-05-10T03:54:30;10.30;;;3.77;;
8450;SDS011;4262;50.980;13.892;2023-05-10T03:56:58;10.33;;;3.73;;
8450;SDS011;4262;50.980;13.892;2023-05-10T03:59:28;8.83;;;4.03;;
8450;SDS011;4262;50.980;13.892;2023-05-10T04:01:56;10.60;;;3.90;;
8450;SDS011;4262;50.980;13.892;2023-05-10T04:04:22;7.30;;;3.63;;
8450;SDS011;4262;50.980;13.892;2023-05-10T04:06:50;6.70;;;3.27;;
8450;SDS011;4262;50.980;13.892;2023-05-10T04:09:18;9.13;;;4.13;;
8450;SDS011;4262;50.980;13.892;2023-05-10T04:11:46;9.50;;;3.23;;
8450;SDS011;4262;50.980;13.892;2023-05-10T04:14:13;8.83;;;3.60;;
8450;SDS011;4262;50.980;13.892;2023-05-10T04:16:40;7.10;;;3.50;;
8450;SDS011;4262;50.980;13.892;2023-05-10T04:19:07;8.60;;;3.50;;
8450;SDS011;4262;50.980;13.892;2023-05-10T04:21:33;7.83;;;3.43;;
8450;SDS011;4262;50.980;13.892;2023-05-10T04:24:01;8.80;;;3.90;;
8450;SDS011;4262;50.980;13.892;2023-05-10T04:26:28;7.47;;;3.37;;
8450;SDS011;4262;50.980;13.892;2023-05-10T04:28:55;9.13;;;3.60;;
8450;SDS011;4262;50.980;13.892;2023-05-10T04:31:23;11.90;;;3.40;;
8450;SDS011;4262;50.980;13.892;2023-05-10T04:33:50;10.03;;;3.13;;
8450;SDS011;4262;50.980;13.892;2023-05-10T04:36:16;11.07;;;3.80;;
8450;SDS011;4262;50.980;13.892;2023-05-10T04:38:43;12.67;;;3.80;;
8450;SDS011;4262;50.980;13.892;2023-05-10T04:41:13;7.77;;;3.27;;
8450;SDS011;4262;50.980;13.892;2023-05-10T04:43:40;9.73;;;3.70;;
8450;SDS011;4262;50.980;13.892;2023-05-10T04:46:06;8.87;;;3.47;;
8450;SDS011;4262;50.980;13.892;2023-05-10T04:48:33;9.50;;;3.37;;
8450;SDS011;4262;50.980;13.892;2023-05-10T04:51:01;6.77;;;2.60;;
8450;SDS011;4262;50.980;13.892;2023-05-10T04:53:29;6.50;;;2.90;;
8450;SDS011;4262;50.980;13.892;2023-05-10T04:55:56;8.30;;;2.90;;
8450;SDS011;4262;50.980;13.892;2023-05-10T04:58:24;8.90;;;3.60;;
8450;SDS011;4262;50.980;13.892;2023-05-10T05:00:51;7.80;;;3.20;;
8450;SDS011;4262;50.980;13.892;2023-05-10T05:03:18;9.40;;;3.23;;
8450;SDS011;4262;50.980;13.892;2023-05-10T05:05:45;9.77;;;3.80;;
8450;SDS011;4262;50.980;13.892;2023-05-10T05:08:12;8.27;;;3.57;;
8450;SDS011;4262;50.980;13.892;2023-05-10T05:10:39;11.93;;;3.70;;
8450;SDS011;4262;50.980;13.892;2023-05-10T05:13:07;7.50;;;3.27;;
8450;SDS011;4262;50.980;13.892;2023-05-10T05:15:36;6.93;;;3.13;;
8450;SDS011;4262;50.980;13.892;2023-05-10T05:18:02;10.10;;;3.30;;
8450;SDS011;4262;50.980;13.892;2023-05-10T05:20:31;10.37;;;3.80;;
8450;SDS011;4262;50.980;13.892;2023-05-10T05:23:00;8.27;;;3.70;;
8450;SDS011;4262;50.980;13.892;2023-05-10T05:25:27;13.87;;;3.70;;
8450;SDS011;4262;50.980;13.892;2023-05-10T05:27:53;7.23;;;2.90;;
8450;SDS011;4262;50.980;13.892;2023-05-10T05:30:20;7.30;;;3.27;;
8450;SDS011;4262;50.980;13.892;2023-05-10T05:32:48;9.43;;;3.10;;
8450;SDS011;4262;50.980;13.892;2023-05-10T05:35:15;8.00;;;3.10;;
8450;SDS011;4262;50.980;13.892;2023-05-10T05:37:42;8.47;;;3.03;;
8450;SDS011;4262;50.980;13.892;2023-05-10T05:40:11;9.80;;;3.30;;
8450;SDS011;4262;50.980;13.892;2023-05-10T05:42:40;7.77;;;2.80;;
8450;SDS011;4262;50.980;13.892;2023-05-10T05:45:07;10.40;;;3.80;;
8450;SDS011;4262;50.980;13.892;2023-05-10T05:47:37;10.43;;;3.20;;
8450;SDS011;4262;50.980;13.892;2023-05-10T05:50:06;10.30;;;3.30;;
8450;SDS011;4262;50.980;13.892;2023-05-10T05:52:33;9.67;;;2.80;;
8450;SDS011;4262;50.980;13.892;2023-05-10T05:54:59;7.60;;;3.00;;
8450;SDS011;4262;50.980;13.892;2023-05-10T05:57:26;14.03;;;3.20;;
8450;SDS011;4262;50.980;13.892;2023-05-10T05:59:53;8.33;;;3.40;;
8450;SDS011;4262;50.980;13.892;2023-05-10T06:02:20;8.07;;;3.07;;
8450;SDS011;4262;50.980;13.892;2023-05-10T06:04:46;10.20;;;3.20;;
8450;SDS011;4262;50.980;13.892;2023-05-10T06:07:14;9.50;;;2.80;;
8450;SDS011;4262;50.980;13.892;2023-05-10T06:09:41;11.53;;;2.73;;
8450;SDS011;4262;50.980;13.892;2023-05-10T06:12:09;12.63;;;2.30;;
8450;SDS011;4262;50.980;13.892;2023-05-10T06:14:37;13.50;;;3.27;;
8450;SDS011;4262;50.980;13.892;2023-05-10T06:17:04;9.10;;;3.40;;
8450;SDS011;4262;50.980;13.892;2023-05-10T06:19:31;8.27;;;3.23;;
8450;SDS011;4262;50.980;13.892;2023-05-10T06:22:00;11.40;;;3.87;;
8450;SDS011;4262;50.980;13.892;2023-05-10T06:24:28;15.10;;;3.57;;
8450;SDS011;4262;50.980;13.892;2023-05-10T06:26:55;8.10;;;3.00;;
8450;SDS011;4262;50.980;13.892;2023-05-10T06:29:21;8.13;;;3.50;;
8450;SDS011;4262;50.980;13.892;2023-05-10T06:31:49;9.57;;;3.10;;
8450;SDS011;4262;50.980;13.892;2023-05-10T06:34:16;13.97;;;2.77;;
8450;SDS011;4262;50.980;13.892;2023-05-10T06:36:43;10.03;;;2.80;;
8450;SDS011;4262;50.980;13.892;2023-05-10T06:39:10;8.30;;;2.93;;
8450;SDS011;4262;50.980;13.892;2023-05-10T06:41:40;8.60;;;3.20;;
8450;SDS011;4262;50.980;13.892;2023-05-10T06:44:07;7.27;;;2.80;;
8450;SDS011;4262;50.980;13.892;2023-05-10T06:46:34;8.10;;;2.77;;
8450;SDS011;4262;50.980;13.892;2023-05-10T06:49:01;12.83;;;3.10;;
8450;SDS011;4262;50.980;13.892;2023-05-10T06:51:30;9.27;;;2.80;;
8450;SDS011;4262;50.980;13.892;2023-05-10T06:53:58;8.13;;;3.10;;
8450;SDS011;4262;50.980;13.892;2023-05-10T06:56:25;9.63;;;2.73;;
8450;SDS011;4262;50.980;13.892;2023-05-10T06:58:53;10.67;;;3.17;;
8450;SDS011;4262;50.980;13.892;2023-05-10T07:01:19;7.07;;;3.07;;
8450;SDS011;4262;50.980;13.892;2023-05-10T07:03:46;12.20;;;3.63;;
8450;SDS011;4262;50.980;13.892;2023-05-10T07:06:13;9.20;;;3.13;;
8450;SDS011;4262;50.980;13.892;2023-05-10T07:08:40;10.63;;;3.63;;
8450;SDS011;4262;50.980;13.892;2023-05-10T07:11:06;12.60;;;4.60;;
8450;SDS011;4262;50.980;13.892;2023-05-10T07:13:35;10.23;;;3.20;;
8450;SDS011;4262;50.980;13.892;2023-05-10T07:16:05;8.20;;;3.43;;
8450;SDS011;4262;50.980;13.892;2023-05-10T07:18:32;7.57;;;2.90;;
8450;SDS011;4262;50.980;13.892;2023-05-10T07:20:59;7.83;;;3.30;;
8450;SDS011;4262;50.980;13.892;2023-05-10T07:23:28;10.13;;;3.30;;
8450;SDS011;4262;50.980;13.892;2023-05-10T07:25:55;12.30;;;4.00;;
8450;SDS011;4262;50.980;13.892;2023-05-10T07:28:22;16.63;;;3.47;;
8450;SDS011;4262;50.980;13.892;2023-05-10T07:30:50;8.67;;;3.40;;
8450;SDS011;4262;50.980;13.892;2023-05-10T07:33:18;7.40;;;2.83;;
8450;SDS011;4262;50.980;13.892;2023-05-10T07:35:45;10.40;;;3.70;;
8450;SDS011;4262;50.980;13.892;2023-05-10T07:38:12;8.90;;;3.20;;
8450;SDS011;4262;50.980;13.892;2023-05-10T07:40:39;9.30;;;3.57;;
8450;SDS011;4262;50.980;13.892;2023-05-10T07:43:07;10.10;;;3.37;;
8450;SDS011;4262;50.980;13.892;2023-05-10T07:45:33;9.20;;;3.60;;
8450;SDS011;4262;50.980;13.892;2023-05-10T07:48:00;7.90;;;3.70;;
8450;SDS011;4262;50.980;13.892;2023-05-10T07:50:29;7.63;;;3.00;;
8450;SDS011;4262;50.980;13.892;2023-05-10T07:52:57;13.50;;;3.83;;
8450;SDS011;4262;50.980;13.892;2023-05-10T07:55:24;8.30;;;3.10;;
8450;SDS011;4262;50.980;13.892;2023-05-10T07:57:51;8.60;;;3.57;;
8450;SDS011;4262;50.980;13.892;2023-05-10T08:00:18;8.53;;;3.40;;
8450;SDS011;4262;50.980;13.892;2023-05-10T08:02:46;9.20;;;3.30;;
8450;SDS011;4262;50.980;13.892;2023-05-10T08:05:13;15.90;;;3.87;;
8450;SDS011;4262;50.980;13.892;2023-05-10T08:07:42;10.43;;;3.50;;
8450;SDS011;4262;50.980;13.892;2023-05-10T08:10:08;11.53;;;3.03;;
8450;SDS011;4262;50.980;13.892;2023-05-10T08:12:37;9.57;;;3.50;;
8450;SDS011;4262;50.980;13.892;2023-05-10T08:15:05;14.63;;;3.80;;
8450;SDS011;4262;50.980;13.892;2023-05-10T08:17:32;8.20;;;3.20;;
8450;SDS011;4262;50.980;13.892;2023-05-10T08:19:59;7.53;;;3.20;;
8450;SDS011;4262;50.980;13.892;2023-05-10T08:22:27;8.60;;;3.33;;
8450;SDS011;4262;50.980;13.892;2023-05-10T08:24:55;7.87;;;3.63;;
8450;SDS011;4262;50.980;13.892;2023-05-10T08:27:22;11.30;;;3.53;;
8450;SDS011;4262;50.980;13.892;2023-05-10T08:29:49;8.63;;;3.43;;
8450;SDS011;4262;50.980;13.892;2023-05-10T08:32:16;9.03;;;4.03;;
8450;SDS011;4262;50.980;13.892;2023-05-10T08:34:43;9.00;;;3.57;;
8450;SDS011;4262;50.980;13.892;2023-05-10T08:37:09;9.93;;;3.60;;
8450;SDS011;4262;50.980;13.892;2023-05-10T08:39:38;9.87;;;4.00;;
8450;SDS011;4262;50.980;13.892;2023-05-10T08:42:07;9.53;;;3.60;;
8450;SDS011;4262;50.980;13.892;2023-05-10T08:44:36;9.57;;;4.00;;
8450;SDS011;4262;50.980;13.892;2023-05-10T08:47:04;8.90;;;3.50;;
8450;SDS011;4262;50.980;13.892;2023-05-10T08:49:32;9.83;;;3.70;;
8450;SDS011;4262;50.980;13.892;2023-05-10T08:52:01;9.90;;;3.73;;
8450;SDS011;4262;50.980;13.892;2023-05-10T08:54:32;7.70;;;3.70;;
8450;SDS011;4262;50.980;13.892;2023-05-10T08:56:59;7.07;;;3.10;;
8450;SDS011;4262;50.980;13.892;2023-05-10T08:59:28;10.73;;;3.03;;
8450;SDS011;4262;50.980;13.892;2023-05-10T09:01:55;9.80;;;3.67;;
8450;SDS011;4262;50.980;13.892;2023-05-10T09:04:24;7.73;;;3.60;;
8450;SDS011;4262;50.980;13.892;2023-05-10T09:06:50;10.77;;;3.63;;
8450;SDS011;4262;50.980;13.892;2023-05-10T09:09:18;11.70;;;3.90;;
8450;SDS011;4262;50.980;13.892;2023-05-10T09:11:46;7.10;;;3.13;;
8450;SDS011;4262;50.980;13.892;2023-05-10T09:14:15;8.27;;;3.63;;
8450;SDS011;4262;50.980;13.892;2023-05-10T09:16:44;9.30;;;3.40;;
8450;SDS011;4262;50.980;13.892;2023-05-10T09:19:11;10.18;;;3.85;;
8450;SDS011;4262;50.980;13.892;2023-05-10T09:21:38;9.17;;;3.70;;
8450;SDS011;4262;50.980;13.892;2023-05-10T09:24:06;10.17;;;3.43;;
8450;SDS011;4262;50.980;13.892;2023-05-10T09:26:34;8.97;;;3.60;;
8450;SDS011;4262;50.980;13.892;2023-05-10T09:29:02;14.77;;;4.63;;
8450;SDS011;4262;50.980;13.892;2023-05-10T09:31:44;9.50;;;5.20;;
8450;SDS011;4262;50.980;13.892;2023-05-10T09:34:15;8.02;;;3.75;;
8450;SDS011;4262;50.980;13.892;2023-05-10T09:36:50;16.13;;;4.10;;
8450;SDS011;4262;50.980;13.892;2023-05-10T09:39:17;10.35;;;4.60;;
8450;SDS011;4262;50.980;13.892;2023-05-10T09:41:44;9.07;;;4.15;;
8450;SDS011;4262;50.980;13.892;2023-05-10T09:44:14;12.70;;;4.32;;
8450;SDS011;4262;50.980;13.892;2023-05-10T09:46:49;13.07;;;4.80;;
8450;SDS011;4262;50.980;13.892;2023-05-10T09:49:18;9.75;;;3.80;;
8450;SDS011;4262;50.980;13.892;2023-05-10T09:51:46;12.70;;;4.47;;
8450;SDS011;4262;50.980;13.892;2023-05-10T09:54:14;12.57;;;4.72;;
8450;SDS011;4262;50.980;13.892;2023-05-10T09:56:42;11.23;;;4.20;;
8450;SDS011;4262;50.980;13.892;2023-05-10T09:59:10;8.48;;;4.60;;
8450;SDS011;4262;50.980;13.892;2023-05-10T10:01:38;10.38;;;3.50;;
8450;SDS011;4262;50.980;13.892;2023-05-10T10:04:07;9.23;;;3.85;;
8450;SDS011;4262;50.980;13.892;2023-05-10T10:06:36;13.60;;;3.78;;
8450;SDS011;4262;50.980;13.892;2023-05-10T10:09:04;9.88;;;3.65;;
8450;SDS011;4262;50.980;13.892;2023-05-10T10:11:31;8.18;;;4.00;;
8450;SDS011;4262;50.980;13.892;2023-05-10T10:14:00;7.70;;;3.97;;
8450;SDS011;4262;50.980;13.892;2023-05-10T10:16:27;9.20;;;4.28;;
8450;SDS011;4262;50.980;13.892;2023-05-10T10:18:55;10.27;;;4.82;;
8450;SDS011;4262;50.980;13.892;2023-05-10T10:21:24;9.43;;;4.00;;
8450;SDS011;4262;50.980;13.892;2023-05-10T10:23:51;9.48;;;4.25;;
8450;SDS011;4262;50.980;13.892;2023-05-10T10:26:18;11.70;;;4.57;;
8450;SDS011;4262;50.980;13.892;2023-05-10T10:28:48;10.27;;;4.47;;
8450;SDS011;4262;50.980;13.892;2023-05-10T10:31:21;9.85;;;4.70;;
8450;SDS011;4262;50.980;13.892;2023-05-10T10:33:59;10.82;;;3.95;;
8450;SDS011;4262;50.980;13.892;2023-05-10T10:36:29;10.65;;;4.47;;
8450;SDS011;4262;50.980;13.892;2023-05-10T10:38:59;14.77;;;4.22;;
8450;SDS011;4262;50.980;13.892;2023-05-10T10:41:27;8.55;;;4.03;;
8450;SDS011;4262;50.980;13.892;2023-05-10T10:47:00;10.90;;;4.93;;
8450;SDS011;4262;50.980;13.892;2023-05-10T10:49:43;13.05;;;5.43;;
8450;SDS011;4262;50.980;13.892;2023-05-10T10:52:20;9.90;;;4.13;;
8450;SDS011;4262;50.980;13.892;2023-05-10T10:54:50;11.13;;;4.68;;
8450;SDS011;4262;50.980;13.892;2023-05-10T10:57:18;9.02;;;4.38;;
8450;SDS011;4262;50.980;13.892;2023-05-10T10:59:47;8.70;;;3.85;;
8450;SDS011;4262;50.980;13.892;2023-05-10T11:02:32;9.18;;;4.45;;
8450;SDS011;4262;50.980;13.892;2023-05-10T11:05:08;11.73;;;4.90;;
8450;SDS011;4262;50.980;13.892;2023-05-10T11:07:55;10.70;;;3.92;;
8450;SDS011;4262;50.980;13.892;2023-05-10T11:10:23;11.93;;;4.63;;
8450;SDS011;4262;50.980;13.892;2023-05-10T11:12:51;8.13;;;3.67;;
8450;SDS011;4262;50.980;13.892;2023-05-10T11:15:19;11.68;;;4.28;;
8450;SDS011;4262;50.980;13.892;2023-05-10T11:17:47;13.75;;;3.65;;
8450;SDS011;4262;50.980;13.892;2023-05-10T11:20:17;8.38;;;3.80;;
8450;SDS011;4262;50.980;13.892;2023-05-10T11:22:51;11.05;;;3.88;;
8450;SDS011;4262;50.980;13.892;2023-05-10T11:25:23;8.90;;;4.13;;
8450;SDS011;4262;50.980;13.892;2023-05-10T11:27:53;12.20;;;4.70;;
8450;SDS011;4262;50.980;13.892;2023-05-10T11:30:20;8.30;;;4.10;;
8450;SDS011;4262;50.980;13.892;2023-05-10T11:32:47;9.32;;;3.97;;
8450;SDS011;4262;50.980;13.892;2023-05-10T11:35:14;9.10;;;3.60;;
8450;SDS011;4262;50.980;13.892;2023-05-10T11:37:41;7.93;;;3.83;;
8450;SDS011;4262;50.980;13.892;2023-05-10T11:40:09;9.35;;;3.75;;
8450;SDS011;4262;50.980;13.892;2023-05-10T11:42:38;11.00;;;4.38;;
8450;SDS011;4262;50.980;13.892;2023-05-10T11:45:05;10.23;;;3.85;;
8450;SDS011;4262;50.980;13.892;2023-05-10T11:47:33;9.93;;;3.63;;
8450;SDS011;4262;50.980;13.892;2023-05-10T11:50:02;12.27;;;4.00;;
8450;SDS011;4262;50.980;13.892;2023-05-10T11:52:34;9.15;;;3.97;;
8450;SDS011;4262;50.980;13.892;2023-05-10T11:55:02;8.63;;;4.25;;
8450;SDS011;4262;50.980;13.892;2023-05-10T11:57:29;12.48;;;4.00;;
8450;SDS011;4262;50.980;13.892;2023-05-10T11:59:58;8.98;;;3.97;;
8450;SDS011;4262;50.980;13.892;2023-05-10T12:02:24;12.07;;;3.80;;
8450;SDS011;4262;50.980;13.892;2023-05-10T12:04:51;12.73;;;4.20;;
8450;SDS011;4262;50.980;13.892;2023-05-10T12:07:19;13.50;;;4.40;;
8450;SDS011;4262;50.980;13.892;2023-05-10T12:12:38;9.45;;;3.80;;
8450;SDS011;4262;50.980;13.892;2023-05-10T12:15:08;12.18;;;4.45;;
8450;SDS011;4262;50.980;13.892;2023-05-10T12:17:37;13.25;;;4.30;;
8450;SDS011;4262;50.980;13.892;2023-05-10T12:20:15;9.30;;;3.42;;
8450;SDS011;4262;50.980;13.892;2023-05-10T12:22:44;10.02;;;3.47;;
8450;SDS011;4262;50.980;13.892;2023-05-10T12:25:15;9.40;;;3.20;;
8450;SDS011;4262;50.980;13.892;2023-05-10T12:27:47;8.73;;;3.88;;
8450;SDS011;4262;50.980;13.892;2023-05-10T12:30:20;9.48;;;3.35;;
8450;SDS011;4262;50.980;13.892;2023-05-10T12:32:47;11.25;;;3.85;;
8450;SDS011;4262;50.980;13.892;2023-05-10T12:35:13;8.35;;;3.30;;
8450;SDS011;4262;50.980;13.892;2023-05-10T12:37:41;7.15;;;3.10;;
8450;SDS011;4262;50.980;13.892;2023-05-10T12:40:09;13.27;;;3.70;;
8450;SDS011;4262;50.980;13.892;2023-05-10T12:42:38;7.55;;;3.55;;
8450;SDS011;4262;50.980;13.892;2023-05-10T12:45:07;8.52;;;3.45;;
8450;SDS011;4262;50.980;13.892;2023-05-10T12:47:36;12.85;;;4.70;;
8450;SDS011;4262;50.980;13.892;2023-05-10T12:50:04;8.75;;;3.80;;
8450;SDS011;4262;50.980;13.892;2023-05-10T12:52:31;9.18;;;4.13;;
8450;SDS011;4262;50.980;13.892;2023-05-10T12:55:00;13.43;;;4.28;;
8450;SDS011;4262;50.980;13.892;2023-05-10T12:57:28;9.27;;;3.83;;
8450;SDS011;4262;50.980;13.892;2023-05-10T12:59:55;8.77;;;3.70;;
8450;SDS011;4262;50.980;13.892;2023-05-10T13:02:22;9.23;;;4.00;;
8450;SDS011;4262;50.980;13.892;2023-05-10T13:04:50;12.70;;;4.25;;
8450;SDS011;4262;50.980;13.892;2023-05-10T13:07:17;14.73;;;3.65;;
8450;SDS011;4262;50.980;13.892;2023-05-10T13:09:44;13.82;;;3.97;;
8450;SDS011;4262;50.980;13.892;2023-05-10T13:12:11;11.73;;;3.55;;
8450;SDS011;4262;50.980;13.892;2023-05-10T13:14:39;9.25;;;3.70;;
8450;SDS011;4262;50.980;13.892;2023-05-10T13:17:06;10.35;;;4.10;;
8450;SDS011;4262;50.980;13.892;2023-05-10T13:19:33;13.77;;;4.22;;
8450;SDS011;4262;50.980;13.892;2023-05-10T13:22:02;13.60;;;4.38;;
8450;SDS011;4262;50.980;13.892;2023-05-10T13:24:30;13.15;;;4.47;;
8450;SDS011;4262;50.980;13.892;2023-05-10T13:26:57;15.23;;;3.92;;
8450;SDS011;4262;50.980;13.892;2023-05-10T13:29:24;14.65;;;4.45;;
8450;SDS011;4262;50.980;13.892;2023-05-10T13:31:51;10.70;;;3.80;;
8450;SDS011;4262;50.980;13.892;2023-05-10T13:34:19;13.63;;;3.60;;
8450;SDS011;4262;50.980;13.892;2023-05-10T13:36:46;10.93;;;3.50;;
8450;SDS011;4262;50.980;13.892;2023-05-10T13:39:15;8.27;;;3.45;;
8450;SDS011;4262;50.980;13.892;2023-05-10T13:41:42;10.98;;;4.28;;
8450;SDS011;4262;50.980;13.892;2023-05-10T13:44:11;12.70;;;4.85;;
8450;SDS011;4262;50.980;13.892;2023-05-10T13:46:39;9.63;;;3.80;;
8450;SDS011;4262;50.980;13.892;2023-05-10T13:49:06;12.73;;;4.07;;
8450;SDS011;4262;50.980;13.892;2023-05-10T13:51:33;13.00;;;4.03;;
8450;SDS011;4262;50.980;13.892;2023-05-10T13:54:02;10.98;;;3.83;;
8450;SDS011;4262;50.980;13.892;2023-05-10T13:56:30;13.98;;;4.05;;
8450;SDS011;4262;50.980;13.892;2023-05-10T13:58:57;9.57;;;3.47;;
8450;SDS011;4262;50.980;13.892;2023-05-10T14:01:24;9.30;;;3.80;;
8450;SDS011;4262;50.980;13.892;2023-05-10T14:03:52;12.90;;;3.87;;
8450;SDS011;4262;50.980;13.892;2023-05-10T14:06:19;9.73;;;3.80;;
8450;SDS011;4262;50.980;13.892;2023-05-10T14:08:46;10.90;;;3.90;;
8450;SDS011;4262;50.980;13.892;2023-05-10T14:11:12;8.43;;;3.53;;
8450;SDS011;4262;50.980;13.892;2023-05-10T14:13:41;9.82;;;3.92;;
8450;SDS011;4262;50.980;13.892;2023-05-10T14:16:07;8.30;;;3.87;;
8450;SDS011;4262;50.980;13.892;2023-05-10T14:18:34;13.30;;;4.15;;
8450;SDS011;4262;50.980;13.892;2023-05-10T14:21:01;9.30;;;4.23;;
8450;SDS011;4262;50.980;13.892;2023-05-10T14:23:28;8.97;;;3.80;;
8450;SDS011;4262;50.980;13.892;2023-05-10T14:25:55;9.30;;;4.00;;
8450;SDS011;4262;50.980;13.892;2023-05-10T14:28:21;11.93;;;3.97;;
8450;SDS011;4262;50.980;13.892;2023-05-10T14:30:50;9.13;;;4.00;;
8450;SDS011;4262;50.980;13.892;2023-05-10T14:33:17;16.67;;;4.83;;
8450;SDS011;4262;50.980;13.892;2023-05-10T14:35:44;9.50;;;3.70;;
8450;SDS011;4262;50.980;13.892;2023-05-10T14:38:11;10.63;;;4.47;;
8450;SDS011;4262;50.980;13.892;2023-05-10T14:40:38;18.73;;;10.07;;
8450;SDS011;4262;50.980;13.892;2023-05-10T14:43:05;21.30;;;11.30;;
8450;SDS011;4262;50.980;13.892;2023-05-10T14:45:31;25.20;;;11.70;;
8450;SDS011;4262;50.980;13.892;2023-05-10T14:47:59;15.33;;;5.20;;
8450;SDS011;4262;50.980;13.892;2023-05-10T14:50:29;9.10;;;3.83;;
8450;SDS011;4262;50.980;13.892;2023-05-10T14:52:57;8.40;;;3.33;;
8450;SDS011;4262;50.980;13.892;2023-05-10T14:55:24;7.83;;;3.60;;
8450;SDS011;4262;50.980;13.892;2023-05-10T14:57:51;13.13;;;4.40;;
8450;SDS011;4262;50.980;13.892;2023-05-10T15:00:18;9.43;;;3.80;;
8450;SDS011;4262;50.980;13.892;2023-05-10T15:02:45;11.57;;;4.40;;
8450;SDS011;4262;50.980;13.892;2023-05-10T15:05:16;12.20;;;4.60;;
8450;SDS011;4262;50.980;13.892;2023-05-10T15:07:42;9.10;;;4.20;;
8450;SDS011;4262;50.980;13.892;2023-05-10T15:10:09;11.40;;;4.00;;
8450;SDS011;4262;50.980;13.892;2023-05-10T15:12:36;9.93;;;3.90;;
8450;SDS011;4262;50.980;13.892;2023-05-10T15:15:05;8.57;;;4.30;;
8450;SDS011;4262;50.980;13.892;2023-05-10T15:17:32;11.53;;;3.30;;
8450;SDS011;4262;50.980;13.892;2023-05-10T15:19:59;8.03;;;3.50;;
8450;SDS011;4262;50.980;13.892;2023-05-10T15:22:29;11.17;;;4.53;;
8450;SDS011;4262;50.980;13.892;2023-05-10T15:24:58;8.10;;;3.70;;
8450;SDS011;4262;50.980;13.892;2023-05-10T15:27:25;12.33;;;3.67;;
8450;SDS011;4262;50.980;13.892;2023-05-10T15:29:52;10.57;;;4.40;;
8450;SDS011;4262;50.980;13.892;2023-05-10T15:32:19;8.30;;;4.23;;
8450;SDS011;4262;50.980;13.892;2023-05-10T15:34:46;9.63;;;3.87;;
8450;SDS011;4262;50.980;13.892;2023-05-10T15:37:12;11.90;;;3.83;;
8450;SDS011;4262;50.980;13.892;2023-05-10T15:39:40;8.20;;;3.60;;
8450;SDS011;4262;50.980;13.892;2023-05-10T15:42:07;15.73;;;4.20;;
8450;SDS011;4262;50.980;13.892;2023-05-10T15:44:35;27.90;;;3.67;;
8450;SDS011;4262;50.980;13.892;2023-05-10T15:47:03;15.33;;;4.27;;
8450;SDS011;4262;50.980;13.892;2023-05-10T15:49:31;10.97;;;3.70;;
8450;SDS011;4262;50.980;13.892;2023-05-10T15:51:57;8.50;;;3.50;;
8450;SDS011;4262;50.980;13.892;2023-05-10T15:54:26;11.03;;;3.60;;
8450;SDS011;4262;50.980;13.892;2023-05-10T15:56:54;9.30;;;3.37;;
8450;SDS011;4262;50.980;13.892;2023-05-10T15:59:21;9.93;;;3.60;;
8450;SDS011;4262;50.980;13.892;2023-05-10T16:01:49;11.73;;;4.20;;
8450;SDS011;4262;50.980;13.892;2023-05-10T16:04:17;9.60;;;3.77;;
8450;SDS011;4262;50.980;13.892;2023-05-10T16:06:43;8.50;;;3.50;;
8450;SDS011;4262;50.980;13.892;2023-05-10T16:09:10;9.30;;;3.27;;
8450;SDS011;4262;50.980;13.892;2023-05-10T16:11:37;7.83;;;3.67;;
8450;SDS011;4262;50.980;13.892;2023-05-10T16:14:05;11.00;;;3.47;;
8450;SDS011;4262;50.980;13.892;2023-05-10T16:16:32;10.80;;;4.27;;
8450;SDS011;4262;50.980;13.892;2023-05-10T16:18:59;9.70;;;4.03;;
8450;SDS011;4262;50.980;13.892;2023-05-10T16:21:28;10.47;;;3.93;;
8450;SDS011;4262;50.980;13.892;2023-05-10T16:23:56;13.50;;;4.00;;
8450;SDS011;4262;50.980;13.892;2023-05-10T16:26:22;12.13;;;4.20;;
8450;SDS011;4262;50.980;13.892;2023-05-10T16:28:50;9.63;;;3.73;;
8450;SDS011;4262;50.980;13.892;2023-05-10T16:31:18;8.30;;;3.30;;
8450;SDS011;4262;50.980;13.892;2023-05-10T16:33:44;8.90;;;3.53;;
8450;SDS011;4262;50.980;13.892;2023-05-10T16:36:11;8.53;;;4.00;;
8450;SDS011;4262;50.980;13.892;2023-05-10T16:38:38;8.20;;;3.67;;
8450;SDS011;4262;50.980;13.892;2023-05-10T16:41:05;7.87;;;3.70;;
8450;SDS011;4262;50.980;13.892;2023-05-10T16:43:32;9.60;;;4.20;;
8450;SDS011;4262;50.980;13.892;2023-05-10T16:45:58;9.50;;;4.60;;
8450;SDS011;4262;50.980;13.892;2023-05-10T16:48:27;10.40;;;4.73;;
8450;SDS011;4262;50.980;13.892;2023-05-10T16:50:53;9.87;;;4.00;;
8450;SDS011;4262;50.980;13.892;2023-05-10T16:53:20;10.30;;;4.17;;
8450;SDS011;4262;50.980;13.892;2023-05-10T16:55:47;15.97;;;4.33;;
8450;SDS011;4262;50.980;13.892;2023-05-10T16:58:14;9.80;;;4.50;;
8450;SDS011;4262;50.980;13.892;2023-05-10T17:00:40;8.57;;;4.10;;
8450;SDS011;4262;50.980;13.892;2023-05-10T17:03:07;8.40;;;4.43;;
8450;SDS011;4262;50.980;13.892;2023-05-10T17:05:35;14.77;;;4.47;;
8450;SDS011;4262;50.980;13.892;2023-05-10T17:08:01;13.87;;;4.27;;
8450;SDS011;4262;50.980;13.892;2023-05-10T17:10:28;8.00;;;3.90;;
8450;SDS011;4262;50.980;13.892;2023-05-10T17:12:55;11.07;;;4.43;;
8450;SDS011;4262;50.980;13.892;2023-05-10T17:15:21;11.77;;;4.60;;
8450;SDS011;4262;50.980;13.892;2023-05-10T17:17:48;8.30;;;4.03;;
8450;SDS011;4262;50.980;13.892;2023-05-10T17:20:15;11.50;;;4.80;;
8450;SDS011;4262;50.980;13.892;2023-05-10T17:22:43;9.60;;;4.47;;
8450;SDS011;4262;50.980;13.892;2023-05-10T17:25:10;10.80;;;4.50;;
8450;SDS011;4262;50.980;13.892;2023-05-10T17:27:37;8.90;;;4.40;;
8450;SDS011;4262;50.980;13.892;2023-05-10T17:30:04;11.37;;;3.60;;
8450;SDS011;4262;50.980;13.892;2023-05-10T17:32:32;10.73;;;4.97;;
8450;SDS011;4262;50.980;13.892;2023-05-10T17:35:01;10.90;;;4.90;;
8450;SDS011;4262;50.980;13.892;2023-05-10T17:37:28;9.00;;;4.30;;
8450;SDS011;4262;50.980;13.892;2023-05-10T17:39:56;10.50;;;3.90;;
8450;SDS011;4262;50.980;13.892;2023-05-10T17:42:23;11.40;;;4.40;;
8450;SDS011;4262;50.980;13.892;2023-05-10T17:44:50;11.30;;;4.83;;
8450;SDS011;4262;50.980;13.892;2023-05-10T17:47:17;9.67;;;4.57;;
8450;SDS011;4262;50.980;13.892;2023-05-10T17:49:44;9.23;;;4.33;;
8450;SDS011;4262;50.980;13.892;2023-05-10T17:52:10;10.77;;;5.30;;
8450;SDS011;4262;50.980;13.892;2023-05-10T17:54:37;9.47;;;4.60;;
8450;SDS011;4262;50.980;13.892;2023-05-10T17:57:05;10.17;;;4.47;;
8450;SDS011;4262;50.980;13.892;2023-05-10T17:59:32;14.60;;;5.13;;
8450;SDS011;4262;50.980;13.892;2023-05-10T18:02:00;11.90;;;4.77;;
8450;SDS011;4262;50.980;13.892;2023-05-10T18:04:27;15.93;;;5.70;;
8450;SDS011;4262;50.980;13.892;2023-05-10T18:06:54;12.73;;;4.80;;
8450;SDS011;4262;50.980;13.892;2023-05-10T18:09:25;14.50;;;5.60;;
8450;SDS011;4262;50.980;13.892;2023-05-10T18:11:52;11.73;;;5.27;;
8450;SDS011;4262;50.980;13.892;2023-05-10T18:14:20;12.60;;;5.30;;
8450;SDS011;4262;50.980;13.892;2023-05-10T18:16:47;11.87;;;5.70;;
8450;SDS011;4262;50.980;13.892;2023-05-10T18:19:14;10.70;;;5.10;;
8450;SDS011;4262;50.980;13.892;2023-05-10T18:21:41;11.10;;;5.87;;
8450;SDS011;4262;50.980;13.892;2023-05-10T18:24:07;19.77;;;5.83;;
8450;SDS011;4262;50.980;13.892;2023-05-10T18:26:35;10.30;;;5.13;;
8450;SDS011;4262;50.980;13.892;2023-05-10T18:29:02;10.20;;;4.80;;
8450;SDS011;4262;50.980;13.892;2023-05-10T18:31:30;10.43;;;5.03;;
8450;SDS011;4262;50.980;13.892;2023-05-10T18:33:56;12.17;;;5.60;;
8450;SDS011;4262;50.980;13.892;2023-05-10T18:36:23;10.50;;;4.90;;